Time;durP1;ratioP1;P1;durP2;ratioP2;P2;SDS_P1;SDS_P2;PMS_P1;PMS_P2;Temp;Humidity;BMP_temperature;BMP_pressure;BME280_temperature;BME280_humidity;BME280_pressure;Samples;Min_cycle;Max_cycle;Signal;HPM_P1;HPM_P2
2023/03/25 00:04:07;;;;;;;17.92;11.35;;;;;;;6.29;89.03;100414.19;10535273;28;20044;-79
2023/03/25 00:09:09;;;;;;;12.10;7.63;;;;;;;6.01;88.70;100349.91;10540792;28;20043;-79
2023/03/25 00:14:11;;;;;;;12.93;7.65;;;;;;;6.42;87.98;100428.91;10521797;28;20049;-78
2023/03/25 00:19:12;;;;;;;12.07;8.02;;;;;;;6.78;88.37;100482.81;10498265;28;20036;-79
2023/03/25 00:24:16;;;;;;;10.35;6.82;;;;;;;6.88;88.58;100501.28;10497498;28;20511;-79
2023/03/25 00:29:17;;;;;;;14.88;7.97;;;;;;;6.70;88.12;100465.03;10496381;28;20037;-79
2023/03/25 00:34:19;;;;;;;13.43;8.15;;;;;;;6.71;89.01;100489.63;10496831;28;20040;-78
2023/03/25 00:39:19;;;;;;;11.77;7.60;;;;;;;6.44;88.77;100458.66;10497249;28;20438;-79
2023/03/25 00:44:21;;;;;;;63.50;30.05;;;;;;;5.84;88.05;100351.41;10496435;28;20135;-79
2023/03/25 00:49:23;;;;;;;30.30;16.50;;;;;;;6.60;89.02;100483.50;10496835;28;20032;-78
2023/03/25 00:54:24;;;;;;;39.63;17.83;;;;;;;6.59;88.73;100494.22;10497050;28;20057;-78
2023/03/25 00:59:25;;;;;;;30.13;16.77;;;;;;;6.22;89.28;100447.34;10495565;28;20044;-78
2023/03/25 01:04:26;;;;;;;31.98;15.23;;;;;;;5.69;88.53;100387.03;10495694;28;20040;-78
2023/03/25 01:09:27;;;;;;;32.00;13.55;;;;;;;6.26;88.00;100496.25;10496392;28;20488;-78
2023/03/25 01:14:28;;;;;;;34.92;15.27;;;;;;;6.21;87.70;100495.00;10495311;28;20381;-79
2023/03/25 01:19:28;;;;;;;21.63;9.95;;;;;;;5.60;88.52;100427.38;10511622;28;20519;-79
2023/03/25 01:24:30;;;;;;;20.40;9.93;;;;;;;5.92;87.91;100493.94;10494333;28;20578;-79
2023/03/25 01:29:31;;;;;;;16.23;9.35;;;;;;;5.67;88.53;100475.94;10495630;28;20076;-80
2023/03/25 01:34:32;;;;;;;12.30;7.38;;;;;;;5.88;87.83;100508.34;10492905;28;20560;-80
2023/03/25 01:39:33;;;;;;;10.05;6.82;;;;;;;5.15;87.89;100393.50;10495624;28;20040;-80
2023/03/25 01:44:36;;;;;;;15.40;6.97;;;;;;;5.70;87.46;100505.50;10495332;28;20033;-80
2023/03/25 01:49:45;;;;;;;12.85;8.10;;;;;;;5.58;88.92;100479.38;10493142;28;20415;-80
2023/03/25 01:54:49;;;;;;;10.68;6.57;;;;;;;5.52;88.17;100486.00;10491868;28;20139;-80
2023/03/25 01:59:52;;;;;;;11.57;6.50;;;;;;;5.28;88.25;100438.88;10495438;28;20135;-80
2023/03/25 02:05:02;;;;;;;14.40;7.17;;;;;;;5.66;88.75;100508.53;10495066;28;20068;-80
2023/03/25 02:10:06;;;;;;;15.98;8.80;;;;;;;5.70;89.02;100509.94;10494191;28;20048;-80
2023/03/25 02:15:09;;;;;;;14.50;7.88;;;;;;;5.31;87.99;100440.44;10493364;28;20087;-80
2023/03/25 02:20:48;;;;;;;18.77;8.38;;;;;;;5.66;88.90;100517.28;10495027;28;20093;-80
2023/03/25 02:26:00;;;;;;;14.32;8.13;;;;;;;5.47;88.89;100523.28;10496188;28;20385;-81
2023/03/25 02:31:34;;;;;;;14.70;7.70;;;;;;;5.49;89.68;100507.34;10501809;28;20127;-81
2023/03/25 02:36:40;;;;;;;13.23;7.88;;;;;;;5.42;88.07;100525.47;10502580;28;20043;-80
2023/03/25 02:41:53;;;;;;;13.65;7.43;;;;;;;5.34;87.94;100524.47;10502822;28;20058;-80
2023/03/25 02:46:58;;;;;;;11.73;7.18;;;;;;;4.65;88.65;100432.84;10501793;28;20052;-80
2023/03/25 02:52:10;;;;;;;12.32;7.40;;;;;;;4.71;89.96;100443.69;10502047;28;20089;-80
2023/03/25 02:57:14;;;;;;;16.00;7.55;;;;;;;4.51;89.48;100426.06;10499746;28;20117;-80
2023/03/25 03:02:18;;;;;;;15.35;7.20;;;;;;;4.41;88.92;100449.69;10500166;28;20049;-80
2023/03/25 03:07:42;;;;;;;13.13;7.97;;;;;;;4.88;91.12;100515.16;10500625;28;20455;-80
2023/03/25 03:12:55;;;;;;;13.93;8.07;;;;;;;4.08;91.94;100369.97;10499960;28;20458;-80
2023/03/25 03:18:14;;;;;;;17.52;8.20;;;;;;;5.09;90.48;100547.59;10500365;28;20075;-80
2023/03/25 03:23:28;;;;;;;18.77;7.65;;;;;;;5.10;91.35;100541.34;10499920;28;20040;-80
2023/03/25 03:28:36;;;;;;;11.27;7.93;;;;;;;4.87;91.16;100489.78;10499954;28;20115;-80
2023/03/25 03:33:56;;;;;;;11.10;8.00;;;;;;;5.20;91.90;100525.59;10499961;28;20033;-80
2023/03/25 03:39:23;;;;;;;16.77;8.20;;;;;;;5.46;92.08;100560.31;10500071;28;20549;-81
2023/03/25 03:44:30;;;;;;;16.35;9.25;;;;;;;4.98;91.81;100453.69;10498878;28;20389;-81
2023/03/25 03:49:41;;;;;;;15.55;9.60;;;;;;;6.08;92.25;100561.19;10499091;28;20458;-81
2023/03/25 03:54:55;;;;;;;14.82;9.30;;;;;;;6.30;91.25;100479.16;10499019;28;20056;-82
2023/03/25 04:00:28;;;;;;;13.30;9.15;;;;;;;7.39;90.42;100535.28;10501733;28;20101;-80
2023/03/25 04:05:31;;;;;;;10.13;7.07;;;;;;;7.80;87.64;100509.38;10504878;28;20064;-81
2023/03/25 04:10:51;;;;;;;12.48;7.97;;;;;;;8.03;84.50;100396.09;10520269;28;20491;-81
2023/03/25 04:15:52;;;;;;;24.92;12.93;;;;;;;9.58;84.74;100556.31;10539410;28;20131;-80
2023/03/25 04:20:54;;;;;;;18.35;8.93;;;;;;;9.81;83.01;100506.19;10540193;28;20402;-80
2023/03/25 04:25:56;;;;;;;17.73;8.50;;;;;;;10.55;81.79;100556.91;10535328;28;20446;-80
2023/03/25 04:30:59;;;;;;;19.67;8.30;;;;;;;10.54;81.00;100510.09;10536499;28;20119;-79
2023/03/25 04:36:00;;;;;;;14.00;9.65;;;;;;;10.25;79.38;100430.84;10521253;28;20078;-79
2023/03/25 04:41:05;;;;;;;17.85;11.25;;;;;;;10.30;78.34;100404.66;10520848;28;20048;-79
2023/03/25 04:46:11;;;;;;;13.10;9.32;;;;;;;11.45;76.66;100532.19;10496896;28;20380;-79
2023/03/25 04:51:14;;;;;;;13.15;8.10;;;;;;;11.40;75.58;100546.81;10497162;28;20515;-78
2023/03/25 04:56:16;;;;;;;16.10;8.82;;;;;;;11.40;76.14;100538.84;10517666;28;20103;-79
2023/03/25 05:01:31;;;;;;;11.93;8.63;;;;;;;11.22;75.20;100500.13;10537793;28;20128;-80
2023/03/25 05:06:40;;;;;;;11.95;9.35;;;;;;;11.38;75.90;100537.34;10538135;28;20123;-80
2023/03/25 05:11:42;;;;;;;16.67;10.32;;;;;;;11.44;75.33;100536.69;10537587;28;20389;-79
2023/03/25 05:16:43;;;;;;;15.38;10.32;;;;;;;11.27;75.23;100511.09;10538168;28;20078;-78
2023/03/25 05:21:44;;;;;;;14.18;10.35;;;;;;;11.06;75.34;100480.53;10537507;28;20403;-79
2023/03/25 05:26:44;;;;;;;16.02;10.32;;;;;;;11.71;75.32;100551.41;10553308;28;20032;-78
2023/03/25 05:31:47;;;;;;;12.68;10.10;;;;;;;11.84;74.85;100550.88;10537178;28;20039;-79
2023/03/25 05:36:48;;;;;;;15.43;11.82;;;;;;;12.06;75.23;100549.34;10537563;28;20040;-79
2023/03/25 05:41:49;;;;;;;16.10;12.05;;;;;;;12.08;74.11;100484.28;10537496;28;20564;-79
2023/03/25 05:46:50;;;;;;;18.17;12.38;;;;;;;12.30;74.43;100511.94;10530472;28;20052;-79
2023/03/25 05:51:52;;;;;;;18.77;11.95;;;;;;;12.67;74.47;100531.69;10536099;28;20516;-79
2023/03/25 05:56:53;;;;;;;15.25;10.77;;;;;;;12.63;73.65;100442.44;10512805;28;20527;-80
2023/03/25 06:01:54;;;;;;;16.55;11.85;;;;;;;13.43;73.00;100518.41;10502050;28;20040;-78
2023/03/25 06:06:55;;;;;;;17.90;13.02;;;;;;;13.54;72.53;100493.94;10506441;28;20082;-79
2023/03/25 06:11:56;;;;;;;18.52;13.23;;;;;;;13.64;72.82;100517.69;10514197;28;20449;-80
2023/03/25 06:16:56;;;;;;;25.17;18.05;;;;;;;13.88;72.51;100528.13;10511591;28;20051;-75
2023/03/25 06:21:57;;;;;;;25.55;14.52;;;;;;;13.99;71.90;100512.63;10506464;28;20078;-75
2023/03/25 06:26:58;;;;;;;16.02;13.18;;;;;;;13.63;71.43;100411.94;10501741;28;20082;-80
2023/03/25 06:31:59;;;;;;;16.88;13.63;;;;;;;14.26;71.63;100530.63;10502085;28;20434;-70
2023/03/25 06:37:00;;;;;;;23.42;12.88;;;;;;;14.18;70.78;100441.75;10501840;28;20500;-70
2023/03/25 06:42:01;;;;;;;19.58;14.57;;;;;;;14.87;70.40;100524.94;10522719;28;20400;-71
2023/03/25 06:47:04;;;;;;;31.42;15.10;;;;;;;14.80;69.56;100451.84;10543483;28;20040;-70
2023/03/25 06:52:05;;;;;;;17.17;13.60;;;;;;;15.58;68.91;100502.63;10543445;28;20046;-70
2023/03/25 06:57:06;;;;;;;19.60;14.13;;;;;;;15.79;68.34;100507.91;10541715;28;20393;-70
2023/03/25 07:02:12;;;;;;;21.70;16.70;;;;;;;15.71;67.22;100473.28;10542526;28;20491;-71
2023/03/25 07:07:13;;;;;;;22.10;15.35;;;;;;;15.86;67.78;100483.88;10538586;28;20047;-70
2023/03/25 07:12:14;;;;;;;19.55;13.90;;;;;;;16.38;67.77;100507.34;10538303;28;20047;-70
2023/03/25 07:17:15;;;;;;;24.00;15.25;;;;;;;16.59;66.17;100489.44;10540325;28;20044;-70
2023/03/25 07:22:16;;;;;;;20.50;14.77;;;;;;;16.97;65.22;100480.84;10542932;28;20403;-70
2023/03/25 07:27:17;;;;;;;19.85;14.68;;;;;;;17.07;64.41;100454.41;10539887;28;20039;-70
2023/03/25 07:32:18;;;;;;;26.63;15.35;;;;;;;17.18;63.88;100472.56;10539027;28;20035;-69
2023/03/25 07:37:19;;;;;;;18.73;14.35;;;;;;;17.43;63.26;100450.44;10538665;28;20582;-70
2023/03/25 07:42:20;;;;;;;21.65;14.35;;;;;;;17.72;62.49;100455.31;10538454;28;20043;-70
2023/03/25 07:47:21;;;;;;;16.92;12.63;;;;;;;18.18;61.73;100440.84;10536406;28;20126;-70
2023/03/25 07:52:21;;;;;;;24.88;13.82;;;;;;;18.30;61.02;100459.81;10517496;28;20040;-70
2023/03/25 07:57:22;;;;;;;20.40;13.27;;;;;;;18.44;60.71;100431.78;10538567;28;20059;-69
2023/03/25 08:02:23;;;;;;;19.02;11.27;;;;;;;18.47;59.62;100398.25;10538109;28;20067;-69
2023/03/25 08:07:24;;;;;;;24.00;11.90;;;;;;;18.79;59.04;100433.25;10538893;28;20044;-69
2023/03/25 08:12:25;;;;;;;18.25;10.95;;;;;;;18.64;58.50;100369.78;10539263;28;20035;-70
2023/03/25 08:17:26;;;;;;;15.25;10.45;;;;;;;19.16;58.16;100428.75;10538687;28;20487;-69
2023/03/25 08:22:26;;;;;;;16.42;9.55;;;;;;;19.18;57.97;100404.31;10535633;28;20127;-70
2023/03/25 08:27:27;;;;;;;14.02;9.07;;;;;;;18.98;57.49;100381.09;10536814;28;20036;-70
2023/03/25 08:32:28;;;;;;;16.05;8.60;;;;;;;18.29;56.96;100250.28;10536912;28;20078;-70
2023/03/25 08:37:33;;;;;;;20.67;9.55;;;;;;;19.22;56.65;100362.41;10538330;28;20050;-69
2023/03/25 08:42:37;;;;;;;11.40;8.30;;;;;;;19.26;56.35;100344.75;10537880;28;20036;-70
2023/03/25 08:47:38;;;;;;;;;;;;;;;19.80;56.80;100359.22;10537559;28;20074;-70
2023/03/25 08:52:40;;;;;;;14.48;7.85;;;;;;;19.48;55.57;100340.53;10535576;28;19958;-69
2023/03/25 08:57:41;;;;;;;18.00;7.45;;;;;;;19.52;55.01;100313.97;10537011;28;20166;-71
2023/03/25 09:02:42;;;;;;;12.40;7.60;;;;;;;19.88;54.66;100323.84;10537908;28;20134;-70
2023/03/25 09:07:45;;;;;;;15.50;7.70;;;;;;;20.12;54.03;100323.91;10536537;28;20586;-70
2023/03/25 09:12:46;;;;;;;14.38;8.13;;;;;;;20.34;53.62;100311.53;10533866;28;20044;-70
2023/03/25 09:17:47;;;;;;;21.52;9.65;;;;;;;20.31;53.23;100285.00;10500387;28;20052;-70
2023/03/25 09:22:48;;;;;;;15.40;8.88;;;;;;;20.45;52.48;100305.31;10535506;28;20169;-70
2023/03/25 09:27:49;;;;;;;19.08;8.63;;;;;;;20.69;52.59;100297.25;10513896;28;20044;-70
2023/03/25 09:32:49;;;;;;;14.73;8.05;;;;;;;21.24;51.59;100288.72;10494750;28;20036;-70
2023/03/25 09:37:50;;;;;;;13.07;8.20;;;;;;;21.33;50.74;100276.47;10494506;28;20045;-70
2023/03/25 09:43:17;;;;;;;41.35;8.48;;;;;;;21.74;49.20;100304.28;10493947;28;20109;-70
2023/03/25 09:48:38;;;;;;;14.57;6.93;;;;;;;22.12;49.10;100291.94;10492554;28;20041;-70
2023/03/25 09:53:45;;;;;;;16.77;7.32;;;;;;;22.28;48.36;100290.34;10497275;28;20062;-70
2023/03/25 09:58:51;;;;;;;14.05;7.45;;;;;;;21.90;48.54;100275.63;10494902;28;20048;-70
2023/03/25 10:03:58;;;;;;;19.50;8.68;;;;;;;21.92;48.39;100278.06;10503377;28;20044;-69
2023/03/25 10:08:58;;;;;;;12.40;7.53;;;;;;;22.38;48.30;100258.03;10518100;28;20381;-72
2023/03/25 10:14:10;;;;;;;13.50;7.10;;;;;;;22.57;46.72;100261.28;10502344;28;20064;-71
2023/03/25 10:19:50;;;;;;;14.27;7.13;;;;;;;22.82;46.25;100249.13;10512609;28;20551;-70
2023/03/25 10:24:52;;;;;;;14.18;6.30;;;;;;;22.75;45.84;100227.66;10516691;28;20594;-71
2023/03/25 10:30:01;;;;;;;9.97;5.43;;;;;;;22.54;44.91;100229.28;10509817;28;20479;-72
2023/03/25 10:35:09;;;;;;;13.88;5.55;;;;;;;22.11;44.61;100219.97;10521147;28;20438;-70
2023/03/25 10:40:21;;;;;;;15.77;7.10;;;;;;;21.47;45.30;100122.97;10516862;28;20079;-70
2023/03/25 10:45:24;;;;;;;20.35;9.80;;;;;;;21.37;45.94;100145.22;10511353;28;20063;-71
2023/03/25 10:50:25;;;;;;;10.27;5.18;;;;;;;20.82;46.43;100135.03;10514827;28;20032;-72
2023/03/25 10:55:31;;;;;;;15.75;5.80;;;;;;;21.16;45.66;100135.09;10521614;28;20052;-71
2023/03/25 11:00:33;;;;;;;16.42;5.20;;;;;;;21.52;45.24;100143.88;10521542;28;20051;-71
2023/03/25 11:05:34;;;;;;;9.90;5.43;;;;;;;21.53;45.46;100183.34;10514064;28;20044;-72
2023/03/25 11:10:35;;;;;;;13.23;5.07;;;;;;;20.57;46.22;100115.63;10526669;28;20040;-76
2023/03/25 11:15:39;;;;;;;8.70;4.60;;;;;;;20.65;46.87;100182.72;10513087;28;20048;-72
2023/03/25 11:20:52;;;;;;;14.00;5.05;;;;;;;20.17;47.22;100173.03;10519085;28;20052;-72
2023/03/25 11:26:20;;;;;;;11.75;5.50;;;;;;;20.01;48.36;100150.25;10523039;28;20047;-72
2023/03/25 11:31:25;;;;;;;19.88;5.90;;;;;;;20.13;47.98;100167.25;10523205;28;20060;-70
2023/03/25 11:36:30;;;;;;;10.20;4.88;;;;;;;20.38;48.20;100167.03;10531733;28;20101;-70
2023/03/25 11:41:34;;;;;;;12.88;5.70;;;;;;;20.47;47.78;100152.09;10541196;28;20047;-70
2023/03/25 11:46:41;;;;;;;20.80;5.63;;;;;;;20.49;46.98;100158.09;10541158;28;20495;-69
2023/03/25 11:51:42;;;;;;;14.30;5.88;;;;;;;20.21;46.75;100090.56;10540932;28;20051;-69
2023/03/25 11:56:47;;;;;;;11.52;4.97;;;;;;;20.37;46.78;100133.00;10542062;28;20071;-71
2023/03/25 12:01:50;;;;;;;10.27;4.68;;;;;;;19.80;47.29;100068.09;10541711;28;20403;-70
2023/03/25 12:06:56;;;;;;;19.13;7.10;;;;;;;20.42;46.52;100154.69;10539566;28;20044;-70
2023/03/25 12:12:34;;;;;;;13.63;4.75;;;;;;;20.60;45.30;100137.53;10534447;28;20097;-70
2023/03/25 12:18:20;;;;;;;12.30;4.30;;;;;;;20.71;45.02;100150.19;10536684;28;20419;-71
2023/03/25 12:23:32;;;;;;;12.15;4.35;;;;;;;20.67;44.73;100143.66;10527397;28;20052;-69
2023/03/25 12:28:41;;;;;;;9.80;3.40;;;;;;;20.62;42.99;100148.13;10497937;28;20083;-69
2023/03/25 12:33:49;;;;;;;11.60;2.90;;;;;;;20.44;44.03;100147.19;10513816;28;20031;-71
2023/03/25 12:39:20;;;;;;;11.30;2.78;;;;;;;20.44;41.25;100105.91;10515610;28;20145;-71
2023/03/25 12:44:39;;;;;;;8.05;3.10;;;;;;;20.50;42.28;100129.22;10498369;28;20097;-71
2023/03/25 12:49:45;;;;;;;7.93;3.00;;;;;;;20.72;40.97;100126.72;10521847;28;20063;-70
2023/03/25 12:55:17;;;;;;;14.30;3.35;;;;;;;20.67;41.14;100129.31;10513081;28;20047;-71
2023/03/25 13:00:26;;;;;;;13.95;4.22;;;;;;;20.24;42.32;100122.47;10517390;28;20508;-71
2023/03/25 13:05:38;;;;;;;11.63;4.72;;;;;;;19.87;42.85;100109.25;10515276;28;20075;-70
2023/03/25 13:10:42;;;;;;;17.17;4.72;;;;;;;19.81;44.04;100121.78;10533702;28;20122;-71
2023/03/25 13:15:49;;;;;;;16.17;4.97;;;;;;;19.94;43.70;100128.81;10537074;28;20040;-71
2023/03/25 13:21:02;;;;;;;17.95;8.00;;;;;;;19.66;44.28;100051.38;10520124;28;20064;-71
2023/03/25 13:26:15;;;;;;;23.27;13.43;;;;;;;20.40;43.42;100129.00;10523520;28;20513;-71
2023/03/25 13:31:19;;;;;;;48.45;16.88;;;;;;;20.02;44.35;100106.91;10537659;28;20059;-71
2023/03/25 13:36:42;;;;;;;26.10;11.50;;;;;;;19.63;43.48;100096.81;10537010;28;20043;-71
2023/03/25 13:41:51;;;;;;;22.60;12.15;;;;;;;19.30;44.53;100090.91;10538384;28;20039;-70
2023/03/25 13:47:08;;;;;;;37.00;5.63;;;;;;;18.91;44.47;100035.81;10537004;28;20152;-71
2023/03/25 13:52:09;;;;;;;17.33;5.72;;;;;;;19.15;44.02;100099.41;10537517;28;20040;-70
2023/03/25 13:57:54;;;;;;;28.05;12.60;;;;;;;19.18;43.39;100113.47;10538099;28;20060;-71
2023/03/25 14:03:14;;;;;;;35.13;14.43;;;;;;;19.02;44.73;100117.63;10536016;28;20048;-71
2023/03/25 14:08:18;;;;;;;22.73;7.85;;;;;;;18.88;44.37;100109.75;10527487;28;20127;-73
2023/03/25 14:13:27;;;;;;;;;;;;;;;18.93;45.16;100107.22;10521936;28;20166;-69
2023/03/25 14:18:30;;;;;;;31.73;13.05;;;;;;;18.48;45.31;100071.75;10521287;28;19920;-71
2023/03/25 14:23:31;;;;;;;33.38;18.15;;;;;;;18.52;45.10;100117.84;10531730;28;20112;-73
2023/03/25 14:28:37;;;;;;;39.10;12.35;;;;;;;18.44;45.43;100118.97;10544488;28;20048;-71
2023/03/25 14:34:00;;;;;;;18.65;7.65;;;;;;;18.34;45.51;100119.50;10520014;28;20048;-74
2023/03/25 14:39:02;;;;;;;17.70;9.93;;;;;;;18.18;45.39;100112.84;10510599;28;20645;-72
2023/03/25 14:44:17;;;;;;;53.42;17.88;;;;;;;17.68;45.56;100040.38;10525585;28;20115;-79
2023/03/25 14:49:22;;;;;;;36.28;13.52;;;;;;;17.56;45.99;100042.16;10528602;28;20063;-81
2023/03/25 14:54:31;;;;;;;16.80;7.40;;;;;;;17.54;46.56;100065.72;10514204;28;20062;-83
2023/03/25 14:59:38;;;;;;;24.48;10.73;;;;;;;17.62;46.39;100094.13;10503412;28;20041;-82
2023/03/25 15:04:39;;;;;;;38.95;15.70;;;;;;;17.07;46.78;100038.41;10502678;28;20056;-83
2023/03/25 15:09:49;;;;;;;54.28;27.35;;;;;;;17.29;46.87;100105.97;10502714;28;20044;-81
2023/03/25 15:14:58;;;;;;;22.42;8.27;;;;;;;16.75;46.75;100045.63;10521090;28;20064;-84
2023/03/25 15:20:04;;;;;;;24.83;5.68;;;;;;;16.88;47.21;100108.09;10526065;28;20034;-81
2023/03/25 15:25:21;;;;;;;39.27;16.37;;;;;;;16.49;47.59;100063.50;10523721;28;20182;-82
2023/03/25 15:30:55;;;;;;;13.45;5.82;;;;;;;16.46;48.16;100112.19;10518773;28;20093;-80
2023/03/25 15:36:01;;;;;;;16.38;3.80;;;;;;;15.16;49.06;99958.56;10497411;28;20036;-81
2023/03/25 15:41:14;;;;;;;23.90;6.63;;;;;;;15.62;50.17;100078.16;10544491;28;20040;-82
2023/03/25 15:46:30;;;;;;;29.77;6.95;;;;;;;15.64;50.88;100111.69;10539833;28;20047;-81
2023/03/25 15:51:31;;;;;;;13.50;4.55;;;;;;;15.48;51.64;100129.00;10507819;28;20051;-80
2023/03/25 15:56:38;;;;;;;27.83;4.47;;;;;;;15.13;52.33;100112.28;10500693;28;20591;-81
2023/03/25 16:01:46;;;;;;;10.00;3.42;;;;;;;14.79;53.54;100075.81;10499539;28;20044;-80
2023/03/25 16:06:50;;;;;;;13.15;4.82;;;;;;;14.93;53.97;100114.13;10505367;28;20419;-80
2023/03/25 16:11:57;;;;;;;31.08;9.18;;;;;;;14.71;54.23;100116.91;10516895;28;20036;-80
2023/03/25 16:17:01;;;;;;;14.88;4.78;;;;;;;14.63;55.23;100124.28;10510085;28;20134;-83
2023/03/25 16:22:14;;;;;;;13.80;3.78;;;;;;;14.34;55.78;100097.63;10519006;28;20078;-84
2023/03/25 16:27:29;;;;;;;11.80;3.40;;;;;;;13.62;56.31;100004.59;10524635;28;20535;-83
2023/03/25 16:32:32;;;;;;;17.42;3.38;;;;;;;13.21;55.92;99963.44;10522765;28;20040;-83
2023/03/25 16:37:34;;;;;;;10.30;3.10;;;;;;;13.94;55.98;100104.59;10521630;28;20044;-83
2023/03/25 16:42:36;;;;;;;12.10;3.50;;;;;;;13.28;56.47;100016.03;10521626;28;20043;-83
2023/03/25 16:47:36;;;;;;;11.70;4.25;;;;;;;13.83;56.29;100110.47;10525262;28;20055;-82
2023/03/25 16:52:37;;;;;;;11.45;4.93;;;;;;;13.55;56.08;100073.94;10533197;28;20051;-82
2023/03/25 16:57:39;;;;;;;18.77;10.20;;;;;;;13.27;56.26;100027.72;10513387;28;20507;-82
2023/03/25 17:02:40;;;;;;;22.30;6.90;;;;;;;13.71;56.09;100120.88;10526194;28;20488;-82
2023/03/25 17:07:42;;;;;;;15.80;5.05;;;;;;;13.58;55.99;100092.22;10508840;28;20060;-82
2023/03/25 17:12:54;;;;;;;15.77;4.68;;;;;;;13.27;55.77;100035.72;10514382;28;20036;-83
2023/03/25 17:18:00;;;;;;;23.80;5.85;;;;;;;12.44;55.16;99907.44;10531624;28;20050;-83
2023/03/25 17:23:08;;;;;;;20.77;8.02;;;;;;;13.01;54.97;100015.78;10515649;28;20051;-83
2023/03/25 17:28:30;;;;;;;18.02;8.15;;;;;;;13.53;54.58;100091.97;10514517;28;20093;-84
2023/03/25 17:33:37;;;;;;;21.80;8.97;;;;;;;13.41;54.70;100096.19;10537161;28;20055;-83
2023/03/25 17:38:44;;;;;;;23.23;13.15;;;;;;;12.56;54.60;99975.19;10537717;28;20044;-83
2023/03/25 17:43:52;;;;;;;32.35;12.43;;;;;;;13.07;54.66;100079.00;10511235;28;20625;-82
2023/03/25 17:48:56;;;;;;;12.75;5.90;;;;;;;12.92;54.70;100072.91;10526665;28;20121;-85
2023/03/25 17:53:56;;;;;;;14.80;4.83;;;;;;;12.77;54.76;100064.97;10507067;28;20056;-84
2023/03/25 17:59:00;;;;;;;10.15;4.20;;;;;;;12.74;54.81;100084.84;10496134;28;20048;-84
2023/03/25 18:04:01;;;;;;;12.20;4.35;;;;;;;12.33;54.38;100024.13;10508610;28;20418;-80
2023/03/25 18:09:06;;;;;;;8.82;3.75;;;;;;;12.34;53.77;100046.25;10507039;28;20044;-81
2023/03/25 18:14:06;;;;;;;13.38;3.80;;;;;;;11.35;53.89;99881.63;10518963;28;20071;-82
2023/03/25 18:19:17;;;;;;;9.75;3.40;;;;;;;12.58;53.58;100074.41;10534025;28;20039;-80
2023/03/25 18:24:18;;;;;;;12.73;4.00;;;;;;;12.26;53.46;100019.72;10496870;28;20048;-80
2023/03/25 18:29:22;;;;;;;12.70;3.80;;;;;;;12.61;52.42;100052.72;10493897;28;20044;-80
2023/03/25 18:34:24;;;;;;;12.88;3.63;;;;;;;12.17;51.82;99975.56;10498144;28;20036;-81
2023/03/25 18:39:26;;;;;;;9.38;3.67;;;;;;;12.40;50.81;100004.72;10529055;28;20044;-80
2023/03/25 18:44:29;;;;;;;9.13;4.13;;;;;;;12.16;50.84;99956.13;10536118;28;20040;-80
2023/03/25 18:49:30;;;;;;;9.68;3.83;;;;;;;12.61;50.90;100031.41;10528773;28;20098;-80
2023/03/25 18:54:31;;;;;;;10.05;3.65;;;;;;;11.39;50.37;99820.91;10510285;28;20068;-80
2023/03/25 18:59:32;;;;;;;9.32;3.20;;;;;;;12.34;49.57;99980.50;10494353;28;20463;-83
2023/03/25 19:04:35;;;;;;;12.00;3.80;;;;;;;12.56;48.89;100015.13;10492983;28;20048;-81
2023/03/25 19:09:36;;;;;;;9.65;3.65;;;;;;;12.60;48.48;100035.09;10519887;28;20040;-81
2023/03/25 19:14:36;;;;;;;11.52;3.50;;;;;;;11.52;48.30;99830.88;10520927;28;20048;-82
2023/03/25 19:19:37;;;;;;;8.82;3.45;;;;;;;12.31;48.39;99938.25;10508986;28;20090;-83
2023/03/25 19:24:38;;;;;;;10.68;3.35;;;;;;;12.53;48.91;100007.53;10528458;28;20411;-81
2023/03/25 19:29:40;;;;;;;8.85;3.03;;;;;;;12.25;49.73;99989.59;10530209;28;20097;-80
2023/03/25 19:34:45;;;;;;;9.63;3.38;;;;;;;11.96;49.41;99950.56;10515536;28;20064;-79
2023/03/25 19:39:45;;;;;;;11.35;3.63;;;;;;;11.82;50.47;99944.22;10517682;28;20052;-82
2023/03/25 19:44:46;;;;;;;11.95;4.75;;;;;;;11.79;51.21;99943.78;10515332;28;20036;-79
2023/03/25 19:49:47;;;;;;;10.95;5.13;;;;;;;11.45;51.50;99912.41;10525994;28;20044;-84
2023/03/25 19:54:48;;;;;;;10.13;5.80;;;;;;;11.06;52.24;99839.91;10518795;28;20431;-81
2023/03/25 19:59:48;;;;;;;12.27;5.68;;;;;;;11.34;52.05;99882.63;10541334;28;20043;-80
2023/03/25 20:04:51;;;;;;;9.85;5.25;;;;;;;10.83;51.96;99800.16;10527245;28;20515;-81
2023/03/25 20:09:52;;;;;;;10.32;5.30;;;;;;;11.80;51.99;99964.06;10514936;28;20076;-80
2023/03/25 20:14:52;;;;;;;12.25;5.60;;;;;;;11.19;52.33;99885.28;10498413;28;20492;-79
2023/03/25 20:19:53;;;;;;;11.98;5.15;;;;;;;11.46;52.87;99949.50;10505432;28;20067;-79
2023/03/25 20:24:55;;;;;;;9.52;5.65;;;;;;;10.89;53.47;99859.72;10500721;28;20493;-79
2023/03/25 20:29:56;;;;;;;12.80;5.45;;;;;;;11.43;54.17;99963.16;10497894;28;20045;-79
2023/03/25 20:34:57;;;;;;;8.38;5.70;;;;;;;11.30;54.25;99969.09;10498139;28;20075;-79
2023/03/25 20:39:59;;;;;;;9.88;5.78;;;;;;;10.81;54.86;99913.75;10498307;28;20123;-78
2023/03/25 20:44:59;;;;;;;12.70;6.65;;;;;;;10.58;55.54;99863.28;10497624;28;20408;-81
2023/03/25 20:50:02;;;;;;;17.05;7.45;;;;;;;10.66;56.15;99875.69;10498466;28;20039;-78
2023/03/25 20:55:04;;;;;;;12.15;7.03;;;;;;;9.91;55.92;99760.47;10497468;28;20060;-78
2023/03/25 21:00:06;;;;;;;14.18;7.35;;;;;;;10.50;56.87;99831.53;10498041;28;20088;-79
2023/03/25 21:05:07;;;;;;;16.65;7.80;;;;;;;11.06;56.98;99913.50;10524830;28;20036;-79
2023/03/25 21:10:09;;;;;;;15.90;7.68;;;;;;;10.39;57.64;99819.50;10539527;28;20390;-79
2023/03/25 21:15:12;;;;;;;17.17;8.52;;;;;;;10.07;58.18;99786.88;10538193;28;20032;-80
2023/03/25 21:20:13;;;;;;;17.77;8.13;;;;;;;10.17;58.95;99812.34;10538167;28;20392;-79
2023/03/25 21:25:15;;;;;;;15.93;8.23;;;;;;;10.45;59.27;99853.28;10538082;28;20126;-79
2023/03/25 21:30:16;;;;;;;18.38;8.85;;;;;;;10.17;59.64;99802.56;10554137;28;20098;-79
2023/03/25 21:35:17;;;;;;;18.00;8.70;;;;;;;9.95;60.21;99788.28;10538496;28;20138;-81
2023/03/25 21:40:18;;;;;;;24.05;12.30;;;;;;;10.52;60.37;99902.03;10531204;28;20487;-80
2023/03/25 21:45:18;;;;;;;15.57;7.65;;;;;;;10.43;60.82;99908.41;10495662;28;20083;-79
2023/03/25 21:50:20;;;;;;;15.70;8.52;;;;;;;10.28;61.63;99896.91;10496668;28;20369;-80
2023/03/25 21:55:23;;;;;;;20.85;8.90;;;;;;;10.16;62.02;99883.19;10511774;28;20072;-80
2023/03/25 22:00:24;;;;;;;18.15;9.07;;;;;;;9.71;61.92;99796.44;10496429;28;20044;-81
2023/03/25 22:05:29;;;;;;;12.52;7.75;;;;;;;9.02;62.25;99722.91;10494927;28;20032;-80
2023/03/25 22:10:30;;;;;;;19.05;8.57;;;;;;;9.66;62.85;99854.47;10495122;28;20562;-80
2023/03/25 22:15:31;;;;;;;18.55;8.23;;;;;;;9.65;63.38;99882.81;10495578;28;20044;-80
2023/03/25 22:20:32;;;;;;;14.32;8.48;;;;;;;9.77;63.80;99891.22;10494941;28;20036;-80
2023/03/25 22:25:33;;;;;;;12.02;7.22;;;;;;;9.31;64.06;99798.31;10495807;28;20134;-79
2023/03/25 22:30:34;;;;;;;13.32;7.28;;;;;;;9.60;63.84;99830.31;10501310;28;20072;-79
2023/03/25 22:35:37;;;;;;;14.00;7.30;;;;;;;9.11;63.89;99718.41;10495010;28;20044;-79
2023/03/25 22:40:38;;;;;;;17.13;7.82;;;;;;;9.98;64.71;99854.28;10521854;28;20058;-79
2023/03/25 22:45:39;;;;;;;14.05;7.38;;;;;;;8.54;64.84;99647.16;10540656;28;20062;-79
2023/03/25 22:50:39;;;;;;;15.43;8.43;;;;;;;8.28;65.27;99628.88;10544608;28;20131;-79
2023/03/25 22:55:40;;;;;;;10.50;6.95;;;;;;;8.44;66.03;99766.50;10543823;28;20400;-79
2023/03/25 23:00:41;;;;;;;18.27;7.25;;;;;;;8.30;66.72;99817.41;10543179;28;20507;-79
2023/03/25 23:06:03;;;;;;;16.17;7.68;;;;;;;7.76;68.52;99741.19;10542147;28;20032;-79
2023/03/25 23:11:10;;;;;;;13.57;8.20;;;;;;;8.27;68.64;99836.28;10544362;28;20044;-78
2023/03/25 23:16:14;;;;;;;11.77;8.35;;;;;;;7.21;68.18;99699.47;10543466;28;20040;-79